createdAt,value
2023-04-09T00:04:56.545Z,11.75
2023-04-09T00:09:58.829Z,12.02
2023-04-09T00:15:01.348Z,12.23
2023-04-09T00:20:04.533Z,11.60
2023-04-09T00:25:07.377Z,12.65
2023-04-09T00:30:10.116Z,11.55
2023-04-09T00:35:13.014Z,11.07
2023-04-09T00:40:15.392Z,12.50
2023-04-09T00:45:17.576Z,11.55
2023-04-09T00:50:20.864Z,11.82
2023-04-09T00:55:23.314Z,11.60
2023-04-09T01:00:25.915Z,11.98
2023-04-09T01:05:39.357Z,12.25
2023-04-09T01:10:56.117Z,10.95
2023-04-09T01:16:02.203Z,11.02
2023-04-09T01:21:14.730Z,13.32
2023-04-09T01:26:28.015Z,12.88
2023-04-09T01:31:37.124Z,13.95
2023-04-09T01:36:41.136Z,14.17
2023-04-09T01:41:43.829Z,15.35
2023-04-09T01:46:48.778Z,14.13
2023-04-09T01:51:51.484Z,12.15
2023-04-09T01:56:53.571Z,11.10
2023-04-09T02:02:06.774Z,11.65
2023-04-09T02:07:18.024Z,11.13
2023-04-09T02:12:22.043Z,11.40
2023-04-09T02:17:24.349Z,10.95
2023-04-09T02:22:26.538Z,11.23
2023-04-09T02:27:28.643Z,10.20
2023-04-09T02:32:30.779Z,10.15
2023-04-09T02:37:32.903Z,9.30
2023-04-09T02:42:35.172Z,11.18
2023-04-09T02:47:37.420Z,11.15
2023-04-09T02:52:39.699Z,12.02
2023-04-09T02:57:42.362Z,12.68
2023-04-09T03:02:44.797Z,12.90
2023-04-09T03:07:47.757Z,13.82
2023-04-09T03:12:49.869Z,14.02
2023-04-09T03:17:52.078Z,14.23
2023-04-09T03:22:54.232Z,14.40
2023-04-09T03:27:56.424Z,13.95
2023-04-09T03:32:59.923Z,15.10
2023-04-09T03:38:02.133Z,14.68
2023-04-09T03:43:04.670Z,14.88
2023-04-09T03:48:07.098Z,13.93
2023-04-09T03:53:09.329Z,14.52
2023-04-09T03:58:11.693Z,15.30
2023-04-09T04:03:15.118Z,15.25
2023-04-09T04:08:17.650Z,14.77
2023-04-09T04:13:19.916Z,15.43
2023-04-09T04:18:22.112Z,16.55
2023-04-09T04:23:24.255Z,16.48
2023-04-09T04:28:26.472Z,16.90
2023-04-09T04:33:28.926Z,17.13
2023-04-09T04:38:31.538Z,16.55
2023-04-09T04:43:33.735Z,17.17
2023-04-09T04:48:35.961Z,16.90
2023-04-09T04:53:38.548Z,15.32
2023-04-09T04:58:40.772Z,14.35
2023-04-09T05:03:43.126Z,12.23
2023-04-09T05:08:45.408Z,12.57
2023-04-09T05:13:47.492Z,11.55
2023-04-09T05:18:49.788Z,11.50
2023-04-09T05:23:52.251Z,11.25
2023-04-09T05:28:54.508Z,11.10
2023-04-09T05:33:56.814Z,11.73
2023-04-09T05:38:59.041Z,12.73
2023-04-09T05:44:01.360Z,11.90
2023-04-09T05:49:03.678Z,11.43
2023-04-09T05:54:05.855Z,13.27
2023-04-09T05:59:08.278Z,11.38
2023-04-09T06:04:10.714Z,11.45
2023-04-09T06:09:12.970Z,11.07
2023-04-09T06:14:18.354Z,10.80
2023-04-09T06:19:20.530Z,10.38
2023-04-09T06:24:22.884Z,10.75
2023-04-09T06:29:25.128Z,11.30
2023-04-09T06:34:27.272Z,10.55
2023-04-09T06:39:29.469Z,9.43
2023-04-09T06:44:31.616Z,11.35
2023-04-09T06:49:33.802Z,11.00
2023-04-09T06:54:36.282Z,12.18
2023-04-09T06:59:39.067Z,10.65
2023-04-09T07:04:41.795Z,8.93
2023-04-09T07:09:43.981Z,7.38
2023-04-09T07:14:46.110Z,7.47
2023-04-09T07:19:48.316Z,7.03
2023-04-09T07:24:54.455Z,9.50
2023-04-09T07:29:57.866Z,8.65
2023-04-09T07:35:00.238Z,8.25
2023-04-09T07:40:04.299Z,7.90
2023-04-09T07:45:07.310Z,7.43
2023-04-09T07:50:10.573Z,7.50
2023-04-09T07:55:12.683Z,7.10
2023-04-09T08:00:15.733Z,7.68
2023-04-09T08:05:17.980Z,7.30
2023-04-09T08:10:20.262Z,6.38
2023-04-09T08:15:22.606Z,6.80
2023-04-09T08:20:24.805Z,6.93
2023-04-09T08:25:27.356Z,6.60
2023-04-09T08:30:29.604Z,6.60
2023-04-09T08:35:32.086Z,7.10
2023-04-09T08:40:37.372Z,6.53
2023-04-09T08:45:42.020Z,6.20
2023-04-09T08:50:46.685Z,7.03
2023-04-09T08:55:49.493Z,7.07
2023-04-09T09:00:51.859Z,5.80
2023-04-09T09:05:54.022Z,6.30
2023-04-09T09:10:56.333Z,6.95
2023-04-09T09:16:15.403Z,6.18
2023-04-09T09:21:18.840Z,6.00
2023-04-09T09:26:31.154Z,6.35
2023-04-09T09:31:47.755Z,6.55
2023-04-09T09:36:50.487Z,6.32
2023-04-09T09:42:08.865Z,5.60
2023-04-09T09:47:13.948Z,8.20
2023-04-09T09:52:21.417Z,7.93
2023-04-09T09:57:28.147Z,6.75
2023-04-09T10:02:40.746Z,5.95
2023-04-09T10:07:43.957Z,8.95
2023-04-09T10:12:46.982Z,8.27
2023-04-09T10:17:49.357Z,8.02
2023-04-09T10:22:53.949Z,12.98
2023-04-09T10:28:03.002Z,28.33
2023-04-09T10:33:12.196Z,12.57
2023-04-09T10:38:17.228Z,8.63
2023-04-09T10:43:24.041Z,10.93
2023-04-09T10:48:27.029Z,12.43
2023-04-09T10:53:29.188Z,7.93
2023-04-09T10:58:31.348Z,10.38
2023-04-09T11:03:45.153Z,5.93
2023-04-09T11:08:48.615Z,4.90
2023-04-09T11:13:50.899Z,6.57
2023-04-09T11:18:56.546Z,6.72
2023-04-09T11:23:58.773Z,5.30
2023-04-09T11:29:14.012Z,5.30
2023-04-09T11:34:16.194Z,5.05
2023-04-09T11:39:18.366Z,5.10
2023-04-09T11:44:23.251Z,5.60
2023-04-09T11:49:25.657Z,4.75
2023-04-09T11:54:33.711Z,6.47
2023-04-09T11:59:39.006Z,6.55
2023-04-09T12:04:51.103Z,5.50
2023-04-09T12:09:54.052Z,5.93
2023-04-09T12:14:59.112Z,5.40
2023-04-09T12:20:02.588Z,5.07
2023-04-09T12:25:05.015Z,4.63
2023-04-09T12:30:07.859Z,4.45
2023-04-09T12:35:10.221Z,4.82
2023-04-09T12:40:16.041Z,4.75
2023-04-09T12:45:19.612Z,4.60
2023-04-09T12:50:21.751Z,5.57
2023-04-09T12:55:23.970Z,4.93
2023-04-09T13:00:26.229Z,5.57
2023-04-09T13:05:29.116Z,6.10
2023-04-09T13:10:31.952Z,5.63
2023-04-09T13:15:34.170Z,4.90
2023-04-09T13:20:36.778Z,5.65
2023-04-09T13:25:38.946Z,4.78
2023-04-09T13:30:41.365Z,5.10
2023-04-09T13:35:43.601Z,5.45
2023-04-09T13:40:46.361Z,4.95
2023-04-09T13:45:50.266Z,5.05
2023-04-09T13:50:52.652Z,5.25
2023-04-09T13:55:55.957Z,5.05
2023-04-09T14:00:58.209Z,4.95
2023-04-09T14:06:00.326Z,5.40
2023-04-09T14:11:02.697Z,5.32
2023-04-09T14:16:05.334Z,6.80
2023-04-09T14:21:10.256Z,6.88
2023-04-09T14:26:13.027Z,4.78
2023-04-09T14:31:15.293Z,5.55
2023-04-09T14:36:18.109Z,4.70
2023-04-09T14:41:20.630Z,5.47
2023-04-09T14:46:22.810Z,6.55
2023-04-09T14:51:25.139Z,7.28
2023-04-09T14:56:27.418Z,7.45
2023-04-09T15:01:30.723Z,7.45
2023-04-09T15:06:34.161Z,6.90
2023-04-09T15:11:36.294Z,8.63
2023-04-09T15:16:38.747Z,10.57
2023-04-09T15:21:41.100Z,11.40
2023-04-09T15:26:43.559Z,11.98
2023-04-09T15:31:45.821Z,9.45
2023-04-09T15:36:48.042Z,9.00
2023-04-09T15:41:50.472Z,9.05
2023-04-09T15:46:52.661Z,11.43
2023-04-09T15:51:54.885Z,10.20
2023-04-09T15:56:57.239Z,11.68
2023-04-09T16:01:59.629Z,11.15
2023-04-09T16:07:02.824Z,8.90
2023-04-09T16:12:05.052Z,9.20
2023-04-09T16:17:07.449Z,11.15
2023-04-09T16:22:10.552Z,9.52
2023-04-09T16:27:13.863Z,9.38
2023-04-09T16:32:16.390Z,7.88
2023-04-09T16:37:18.650Z,6.72
2023-04-09T16:42:20.865Z,6.55
2023-04-09T16:47:23.160Z,6.78
2023-04-09T16:52:25.472Z,7.47
2023-04-09T16:57:27.676Z,8.25
2023-04-09T17:02:30.156Z,8.65
2023-04-09T17:07:32.690Z,9.45
2023-04-09T17:12:35.093Z,9.25
2023-04-09T17:17:37.674Z,9.30
2023-04-09T17:22:39.972Z,10.30
2023-04-09T17:27:44.337Z,9.75
2023-04-09T17:32:46.722Z,9.48
2023-04-09T17:37:48.960Z,11.75
2023-04-09T17:42:51.233Z,8.75
2023-04-09T17:47:53.535Z,10.07
2023-04-09T17:52:55.737Z,9.52
2023-04-09T17:57:57.847Z,9.85
2023-04-09T18:03:00.420Z,9.82
2023-04-09T18:08:02.873Z,9.30
2023-04-09T18:13:05.116Z,7.35
2023-04-09T18:18:07.289Z,8.55
2023-04-09T18:23:09.432Z,10.48
2023-04-09T18:28:11.850Z,9.13
2023-04-09T18:33:14.336Z,14.70
2023-04-09T18:38:16.494Z,9.77
2023-04-09T18:43:18.655Z,9.23
2023-04-09T18:48:20.787Z,9.30
2023-04-09T18:53:23.034Z,9.68
2023-04-09T18:58:25.857Z,10.00
2023-04-09T19:03:30.674Z,10.55
2023-04-09T19:08:38.449Z,12.82
2023-04-09T19:13:54.677Z,14.25
2023-04-09T19:18:57.131Z,13.02
2023-04-09T19:24:00.850Z,12.65
2023-04-09T19:29:05.611Z,13.85
2023-04-09T19:34:07.816Z,13.15
2023-04-09T19:39:11.450Z,13.25
2023-04-09T19:44:13.535Z,13.80
2023-04-09T19:49:16.278Z,14.30
2023-04-09T19:54:18.813Z,13.65
2023-04-09T19:59:21.180Z,13.20
2023-04-09T20:04:26.297Z,11.43
2023-04-09T20:09:29.512Z,13.10
2023-04-09T20:14:31.981Z,12.25
2023-04-09T20:19:34.403Z,13.40
2023-04-09T20:24:38.960Z,13.98
2023-04-09T20:29:41.225Z,15.02
2023-04-09T20:34:43.930Z,13.27
2023-04-09T20:39:46.194Z,11.52
2023-04-09T20:44:48.508Z,11.05
2023-04-09T20:49:53.554Z,11.43
2023-04-09T20:54:57.389Z,11.18
2023-04-09T20:59:59.633Z,7.97
2023-04-09T21:05:11.804Z,7.30
2023-04-09T21:10:24.074Z,7.10
2023-04-09T21:15:26.473Z,6.47
2023-04-09T21:20:28.650Z,6.47
2023-04-09T21:25:30.924Z,6.05
2023-04-09T21:30:37.953Z,5.10
2023-04-09T21:35:40.157Z,6.63
2023-04-09T21:40:42.354Z,6.13
2023-04-09T21:45:44.795Z,7.72
2023-04-09T21:50:47.244Z,8.35
2023-04-09T21:55:49.376Z,7.93
2023-04-09T22:00:52.551Z,8.02
2023-04-09T22:05:54.747Z,8.85
2023-04-09T22:10:57.337Z,7.90
2023-04-09T22:15:59.561Z,8.38
2023-04-09T22:21:02.035Z,8.05
2023-04-09T22:26:04.311Z,8.57
2023-04-09T22:31:06.791Z,8.57
2023-04-09T22:36:11.901Z,7.45
2023-04-09T22:41:14.189Z,7.80
2023-04-09T22:46:16.707Z,7.20
2023-04-09T22:51:18.939Z,7.38
2023-04-09T22:56:22.573Z,7.45
2023-04-09T23:01:24.698Z,6.97
2023-04-09T23:06:26.895Z,7.57
2023-04-09T23:11:29.222Z,7.07
2023-04-09T23:16:31.519Z,7.90
2023-04-09T23:21:33.672Z,7.93
2023-04-09T23:26:35.892Z,7.95
2023-04-09T23:31:38.121Z,7.05
2023-04-09T23:36:41.084Z,7.45
2023-04-09T23:41:43.473Z,7.57
2023-04-09T23:46:46.155Z,7.10
2023-04-09T23:51:48.283Z,7.28
2023-04-09T23:56:50.365Z,6.40
